Time,TemperatureF,DewpointF,PressureIn,WindDirection,WindDirectionDegrees,WindSpeedMPH,WindSpeedGustMPH,Humidity,HourlyPrecipIn,Conditions,Clouds,dailyrainin,SoftwareType,DateUTC
2013-08-20 00:00:00,74.5,60.0,29.52,SW,217,2.0,5.0,61,0.00,,,0.00,VWS V14.01,2013-08-20 05:00:00,
2013-08-20 00:01:00,72.1,58.7,29.52,West,260,4.0,4.0,63,0.00,,,0.00,VWS V14.01,2013-08-20 05:01:00,
2013-08-20 00:06:00,72.0,58.6,29.52,West,279,4.0,5.0,63,0.00,,,0.00,VWS V14.01,2013-08-20 05:06:00,
2013-08-20 00:11:00,72.0,58.6,29.52,West,268,2.0,5.0,63,0.00,,,0.00,VWS V14.01,2013-08-20 05:11:00,
2013-08-20 00:15:00,74.1,59.7,29.51,WSW,257,3.0,6.0,61,0.00,,,0.00,VWS V14.01,2013-08-20 05:15:00,
2013-08-20 00:16:00,72.1,58.7,29.52,West,266,4.0,4.0,63,0.00,,,0.00,VWS V14.01,2013-08-20 05:16:00,
2013-08-20 00:21:00,72.3,58.4,29.52,West,265,3.0,5.0,62,0.00,,,0.00,VWS V14.01,2013-08-20 05:21:00,
2013-08-20 00:26:00,72.4,58.1,29.52,West,267,3.0,5.0,61,0.00,,,0.00,VWS V14.01,2013-08-20 05:26:00,
2013-08-20 00:30:00,74.1,59.2,29.52,WSW,252,7.0,7.0,60,0.00,,,0.00,VWS V14.01,2013-08-20 05:30:00,
2013-08-20 00:31:00,72.5,58.2,29.52,West,273,4.0,5.0,61,0.00,,,0.00,VWS V14.01,2013-08-20 05:31:00,
2013-08-20 00:36:00,72.4,58.1,29.52,WSW,258,3.0,5.0,61,0.00,,,0.00,VWS V14.01,2013-08-20 05:36:00,
2013-08-20 00:41:00,72.2,57.9,29.52,West,270,3.0,6.0,61,0.00,,,0.00,VWS V14.01,2013-08-20 05:41:00,
2013-08-20 00:45:00,73.5,59.1,29.52,WNW,287,1.0,8.0,61,0.00,,,0.00,VWS V14.01,2013-08-20 05:45:00,
2013-08-20 00:46:00,72.1,57.8,29.52,West,267,3.0,4.0,61,0.00,,,0.00,VWS V14.01,2013-08-20 05:46:00,
2013-08-20 00:51:00,72.1,57.8,29.52,West,259,3.0,4.0,61,0.00,,,0.00,VWS V14.01,2013-08-20 05:51:00,
2013-08-20 00:56:00,72.1,57.3,29.52,West,260,4.0,4.0,60,0.00,,,0.00,VWS V14.01,2013-08-20 05:56:00,
2013-08-20 01:00:00,72.1,58.7,29.52,West,271,3.0,6.0,63,0.00,,,0.00,VWS V14.01,2013-08-20 06:00:00,
2013-08-20 01:01:00,72.1,57.3,29.52,WSW,250,3.0,3.0,60,0.00,,,0.00,VWS V14.01,2013-08-20 06:01:00,
2013-08-20 01:06:00,72.1,57.3,29.52,WSW,246,0.0,4.0,60,0.00,,,0.00,VWS V14.01,2013-08-20 06:06:00,
2013-08-20 01:11:00,71.7,57.9,29.52,SSW,194,2.0,4.0,62,0.00,,,0.00,VWS V14.01,2013-08-20 06:11:00,
2013-08-20 01:15:00,72.1,58.7,29.52,West,269,3.0,5.0,63,0.00,,,0.00,VWS V14.01,2013-08-20 06:15:00,
2013-08-20 01:16:00,71.2,57.4,29.52,SSW,194,0.0,1.0,62,0.00,,,0.00,VWS V14.01,2013-08-20 06:16:00,
2013-08-20 01:21:00,70.8,57.5,29.52,SW,219,0.0,3.0,63,0.00,,,0.00,VWS V14.01,2013-08-20 06:21:00,
2013-08-20 01:26:00,70.4,57.1,29.52,SW,234,1.0,3.0,63,0.00,,,0.00,VWS V14.01,2013-08-20 06:26:00,
2013-08-20 01:30:00,72.5,58.2,29.52,SW,232,4.0,7.0,61,0.00,,,0.00,VWS V14.01,2013-08-20 06:30:00,
2013-08-20 01:31:00,70.3,57.0,29.52,SW,235,2.0,2.0,63,0.00,,,0.00,VWS V14.01,2013-08-20 06:31:00,
2013-08-20 01:36:00,70.0,57.2,29.52,SW,234,1.0,2.0,64,0.00,,,0.00,VWS V14.01,2013-08-20 06:36:00,
2013-08-20 01:41:00,69.6,57.2,29.52,SW,234,2.0,3.0,65,0.00,,,0.00,VWS V14.01,2013-08-20 06:41:00,
2013-08-20 01:45:00,72.1,57.8,29.52,West,260,2.0,6.0,61,0.00,,,0.00,VWS V14.01,2013-08-20 06:45:00,
2013-08-20 01:46:00,69.4,57.0,29.52,West,262,1.0,2.0,65,0.00,,,0.00,VWS V14.01,2013-08-20 06:46:00,
2013-08-20 01:51:00,69.2,56.8,29.52,WSW,237,0.0,3.0,65,0.00,,,0.00,VWS V14.01,2013-08-20 06:51:00,
2013-08-20 01:56:00,69.0,56.6,29.52,WSW,237,2.0,3.0,65,0.00,,,0.00,VWS V14.01,2013-08-20 06:56:00,
2013-08-20 02:00:00,72.1,57.3,29.52,WSW,258,3.0,4.0,60,0.00,,,0.00,VWS V14.01,2013-08-20 07:00:00,
2013-08-20 02:01:00,69.1,57.2,29.52,WSW,237,2.0,3.0,66,0.00,,,0.00,VWS V14.01,2013-08-20 07:01:00,
2013-08-20 02:06:00,68.9,57.4,29.52,SSE,161,3.0,3.0,67,0.00,,,0.00,VWS V14.01,2013-08-20 07:06:00,
2013-08-20 02:11:00,68.6,57.5,29.52,SE,145,3.0,4.0,68,0.00,,,0.00,VWS V14.01,2013-08-20 07:11:00,
2013-08-20 02:15:00,71.3,57.5,29.52,SSW,194,0.0,4.0,62,0.00,,,0.00,VWS V14.01,2013-08-20 07:15:00,
2013-08-20 02:16:00,68.1,57.4,29.52,SE,145,4.0,5.0,69,0.00,,,0.00,VWS V14.01,2013-08-20 07:16:00,
2013-08-20 02:21:00,67.6,57.4,29.52,South,173,3.0,6.0,70,0.00,,,0.00,VWS V14.01,2013-08-20 07:21:00,
2013-08-20 02:26:00,67.1,57.3,29.52,SSE,155,3.0,6.0,71,0.00,,,0.00,VWS V14.01,2013-08-20 07:26:00,
2013-08-20 02:30:00,70.3,57.0,29.52,SW,234,1.0,3.0,63,0.00,,,0.00,VWS V14.01,2013-08-20 07:30:00,
2013-08-20 02:31:00,66.8,57.4,29.52,South,176,2.0,3.0,72,0.00,,,0.00,VWS V14.01,2013-08-20 07:31:00,
2013-08-20 02:36:00,66.7,57.3,29.52,South,179,2.0,5.0,72,0.00,,,0.00,VWS V14.01,2013-08-20 07:36:00,
2013-08-20 02:41:00,66.7,57.3,29.52,South,173,1.0,5.0,72,0.00,,,0.00,VWS V14.01,2013-08-20 07:41:00,
2013-08-20 02:45:00,69.4,57.0,29.52,West,262,1.0,3.0,65,0.00,,,0.00,VWS V14.01,2013-08-20 07:45:00,
2013-08-20 02:46:00,66.7,57.3,29.52,South,173,2.0,3.0,72,0.00,,,0.00,VWS V14.01,2013-08-20 07:46:00,
2013-08-20 02:51:00,66.8,57.4,29.52,South,173,2.0,3.0,72,0.00,,,0.00,VWS V14.01,2013-08-20 07:51:00,
2013-08-20 02:56:00,66.7,57.7,29.52,SSE,159,3.0,5.0,73,0.00,,,0.00,VWS V14.01,2013-08-20 07:56:00,
2013-08-20 03:00:00,69.1,57.2,29.52,WSW,237,2.0,3.0,66,0.00,,,0.00,VWS V14.01,2013-08-20 08:00:00,
2013-08-20 03:01:00,66.3,57.7,29.52,SSE,163,3.0,3.0,74,0.00,,,0.00,VWS V14.01,2013-08-20 08:01:00,
2013-08-20 03:06:00,66.1,57.5,29.52,SE,135,4.0,5.0,74,0.00,,,0.00,VWS V14.01,2013-08-20 08:06:00,
2013-08-20 03:11:00,65.7,57.5,29.52,SE,143,3.0,5.0,75,0.00,,,0.00,VWS V14.01,2013-08-20 08:11:00,
2013-08-20 03:15:00,68.1,57.4,29.52,SSE,149,4.0,5.0,69,0.00,,,0.00,VWS V14.01,2013-08-20 08:15:00,
2013-08-20 03:16:00,65.4,57.5,29.52,SE,139,4.0,5.0,76,0.00,,,0.00,VWS V14.01,2013-08-20 08:16:00,
2013-08-20 03:21:00,65.3,57.8,29.52,SSE,158,3.0,7.0,77,0.00,,,0.00,VWS V14.01,2013-08-20 08:21:00,
2013-08-20 03:26:00,65.3,57.8,29.52,SE,138,5.0,7.0,77,0.00,,,0.00,VWS V14.01,2013-08-20 08:26:00,
2013-08-20 03:30:00,65.4,58.3,29.52,SSE,163,6.0,7.0,78,0.00,,,0.00,VWS V14.01,2013-08-20 08:30:00,
2013-08-20 03:35:00,65.7,58.2,29.52,South,184,3.0,7.0,77,0.00,,,0.00,VWS V14.01,2013-08-20 08:35:00,
2013-08-20 03:40:00,66.1,58.2,29.52,South,177,2.0,7.0,76,0.00,,,0.00,VWS V14.01,2013-08-20 08:40:00,
2013-08-20 03:45:00,66.6,58.3,29.52,SE,144,4.0,6.0,75,0.00,,,0.00,VWS V14.01,2013-08-20 08:45:00,
2013-08-20 03:50:00,66.4,58.5,29.51,SSE,147,5.0,6.0,76,0.00,,,0.00,VWS V14.01,2013-08-20 08:50:00,
2013-08-20 03:55:00,66.3,58.8,29.51,SSE,162,3.0,6.0,77,0.00,,,0.00,VWS V14.01,2013-08-20 08:55:00,
2013-08-20 04:00:00,66.1,58.6,29.51,SSE,163,7.0,7.0,77,0.00,,,0.00,VWS V14.01,2013-08-20 09:00:00,
2013-08-20 04:05:00,65.9,58.4,29.51,South,169,3.0,9.0,77,0.00,,,0.00,VWS V14.01,2013-08-20 09:05:00,
2013-08-20 04:10:00,65.8,58.7,29.51,South,180,8.0,10.0,78,0.00,,,0.00,VWS V14.01,2013-08-20 09:10:00,
2013-08-20 04:15:00,65.7,58.5,29.51,South,173,8.0,9.0,78,0.00,,,0.00,VWS V14.01,2013-08-20 09:15:00,
2013-08-20 04:20:00,65.9,58.4,29.51,SSE,163,7.0,10.0,77,0.00,,,0.00,VWS V14.01,2013-08-20 09:20:00,
2013-08-20 04:25:00,65.9,58.4,29.51,SSE,165,6.0,10.0,77,0.00,,,0.00,VWS V14.01,2013-08-20 09:25:00,
2013-08-20 04:30:00,66.1,58.2,29.51,South,179,7.0,9.0,76,0.00,,,0.00,VWS V14.01,2013-08-20 09:30:00,
2013-08-20 04:35:00,66.2,57.9,29.51,South,171,7.0,11.0,75,0.00,,,0.00,VWS V14.01,2013-08-20 09:35:00,
2013-08-20 04:40:00,66.5,57.8,29.52,South,182,4.0,11.0,74,0.00,,,0.00,VWS V14.01,2013-08-20 09:40:00,
2013-08-20 04:45:00,66.8,57.8,29.52,SSW,192,5.0,7.0,73,0.00,,,0.00,VWS V14.01,2013-08-20 09:45:00,
2013-08-20 04:50:00,66.8,57.4,29.51,South,188,1.0,7.0,72,0.00,,,0.00,VWS V14.01,2013-08-20 09:50:00,
2013-08-20 04:55:00,66.8,57.4,29.51,South,183,3.0,7.0,72,0.00,,,0.00,VWS V14.01,2013-08-20 09:55:00,
2013-08-20 05:00:00,67.1,56.9,29.51,South,188,3.0,4.0,70,0.00,,,0.00,VWS V14.01,2013-08-20 10:00:00,
2013-08-20 05:05:00,67.7,57.0,29.51,SSW,193,4.0,7.0,69,0.00,,,0.00,VWS V14.01,2013-08-20 10:05:00,
2013-08-20 05:10:00,67.5,57.3,29.51,SSW,199,2.0,7.0,70,0.00,,,0.00,VWS V14.01,2013-08-20 10:10:00,
2013-08-20 05:15:00,67.0,57.2,29.51,South,172,2.0,2.0,71,0.00,,,0.00,VWS V14.01,2013-08-20 10:15:00,
2013-08-20 05:20:00,66.6,57.6,29.51,SSE,166,9.0,10.0,73,0.00,,,0.00,VWS V14.01,2013-08-20 10:20:00,
2013-08-20 05:25:00,66.4,57.8,29.51,South,177,5.0,10.0,74,0.00,,,0.00,VWS V14.01,2013-08-20 10:25:00,
2013-08-20 05:30:00,65.9,57.7,29.51,SE,138,4.0,7.0,75,0.00,,,0.00,VWS V14.01,2013-08-20 10:30:00,
2013-08-20 05:35:00,65.4,57.5,29.51,South,173,3.0,8.0,76,0.00,,,0.00,VWS V14.01,2013-08-20 10:35:00,
2013-08-20 05:40:00,65.7,57.5,29.51,SSE,161,7.0,10.0,75,0.00,,,0.00,VWS V14.01,2013-08-20 10:40:00,
2013-08-20 05:45:00,65.9,57.7,29.51,South,185,4.0,4.0,75,0.00,,,0.00,VWS V14.01,2013-08-20 10:45:00,
2013-08-20 05:50:00,65.8,57.5,29.51,SSE,166,6.0,9.0,75,0.00,,,0.00,VWS V14.01,2013-08-20 10:50:00,
2013-08-20 05:55:00,65.7,57.5,29.51,SSE,164,2.0,9.0,75,0.00,,,0.00,VWS V14.01,2013-08-20 10:55:00,
2013-08-20 06:00:00,65.8,57.2,29.51,South,181,5.0,7.0,74,0.00,,,0.00,VWS V14.01,2013-08-20 11:00:00,
2013-08-20 06:05:00,66.3,57.3,29.51,South,186,3.0,8.0,73,0.00,,,0.00,VWS V14.01,2013-08-20 11:05:00,
2013-08-20 06:10:00,66.9,57.5,29.51,South,179,7.0,9.0,72,0.00,,,0.00,VWS V14.01,2013-08-20 11:10:00,
2013-08-20 06:15:00,67.2,57.4,29.50,South,180,2.0,5.0,71,0.00,,,0.00,VWS V14.01,2013-08-20 11:15:00,
2013-08-20 06:20:00,67.3,57.5,29.50,South,184,7.0,8.0,71,0.00,,,0.00,VWS V14.01,2013-08-20 11:20:00,
2013-08-20 06:25:00,67.7,57.0,29.50,SSW,194,4.0,8.0,69,0.00,,,0.00,VWS V14.01,2013-08-20 11:25:00,
2013-08-20 06:30:00,67.8,57.2,29.50,SSE,155,6.0,6.0,69,0.00,,,0.00,VWS V14.01,2013-08-20 11:30:00,
2013-08-20 06:35:00,67.5,57.3,29.50,South,169,3.0,6.0,70,0.00,,,0.00,VWS V14.01,2013-08-20 11:35:00,
2013-08-20 06:40:00,67.1,57.3,29.50,SSE,156,3.0,6.0,71,0.00,,,0.00,VWS V14.01,2013-08-20 11:40:00,
2013-08-20 06:45:00,66.9,57.1,29.50,SSE,153,3.0,3.0,71,0.00,,,0.00,VWS V14.01,2013-08-20 11:45:00,
2013-08-20 06:50:00,67.0,56.8,29.50,South,169,3.0,8.0,70,0.00,,,0.00,VWS V14.01,2013-08-20 11:50:00,
2013-08-20 06:55:00,67.1,56.9,29.50,SSE,157,5.0,8.0,70,0.00,,,0.00,VWS V14.01,2013-08-20 11:55:00,
2013-08-20 07:00:00,67.2,57.0,29.50,SSE,163,7.0,8.0,70,0.00,,,0.00,VWS V14.01,2013-08-20 12:00:00,
2013-08-20 07:05:00,67.4,56.8,29.50,SSE,164,8.0,10.0,69,0.00,,,0.00,VWS V14.01,2013-08-20 12:05:00,
2013-08-20 07:10:00,67.4,56.8,29.51,South,177,7.0,10.0,69,0.00,,,0.00,VWS V14.01,2013-08-20 12:10:00,
2013-08-20 07:15:00,67.6,56.5,29.51,SSE,155,6.0,7.0,68,0.00,,,0.00,VWS V14.01,2013-08-20 12:15:00,
2013-08-20 07:20:00,67.9,56.8,29.51,SSE,159,3.0,9.0,68,0.00,,,0.00,VWS V14.01,2013-08-20 12:20:00,
2013-08-20 07:25:00,68.3,56.8,29.51,SSE,147,3.0,9.0,67,0.00,,,0.00,VWS V14.01,2013-08-20 12:25:00,
2013-08-20 07:30:00,68.6,56.7,29.51,South,178,5.0,6.0,66,0.00,,,0.00,VWS V14.01,2013-08-20 12:30:00,
2013-08-20 07:35:00,69.0,57.0,29.51,South,176,4.0,9.0,66,0.00,,,0.00,VWS V14.01,2013-08-20 12:35:00,
2013-08-20 07:40:00,69.2,56.8,29.51,SSE,162,7.0,9.0,65,0.00,,,0.00,VWS V14.01,2013-08-20 12:40:00,
2013-08-20 07:45:00,69.2,57.2,29.51,SSE,155,6.0,8.0,66,0.00,,,0.00,VWS V14.01,2013-08-20 12:45:00,
2013-08-20 07:50:00,69.2,57.2,29.51,SSE,156,8.0,9.0,66,0.00,,,0.00,VWS V14.01,2013-08-20 12:50:00,
2013-08-20 07:55:00,69.4,57.8,29.51,SSE,165,5.0,9.0,67,0.00,,,0.00,VWS V14.01,2013-08-20 12:55:00,
2013-08-20 08:00:00,69.8,58.2,29.51,SSE,156,7.0,8.0,67,0.00,,,0.00,VWS V14.01,2013-08-20 13:00:00,
2013-08-20 08:05:00,70.3,58.3,29.51,South,169,2.0,8.0,66,0.00,,,0.00,VWS V14.01,2013-08-20 13:05:00,
2013-08-20 08:10:00,70.7,59.1,29.51,SE,145,4.0,9.0,67,0.00,,,0.00,VWS V14.01,2013-08-20 13:10:00,
2013-08-20 08:15:00,71.2,59.6,29.51,SSE,167,2.0,2.0,67,0.00,,,0.00,VWS V14.01,2013-08-20 13:15:00,
2013-08-20 08:20:00,71.6,60.0,29.51,SE,138,5.0,9.0,67,0.00,,,0.00,VWS V14.01,2013-08-20 13:20:00,
2013-08-20 08:25:00,72.2,60.1,29.51,SSE,163,5.0,9.0,66,0.00,,,0.00,VWS V14.01,2013-08-20 13:25:00,
2013-08-20 08:30:00,72.9,60.3,29.51,SSE,152,8.0,9.0,65,0.00,,,0.00,VWS V14.01,2013-08-20 13:30:00,
2013-08-20 08:35:00,73.5,60.5,29.51,SSE,153,9.0,10.0,64,0.00,,,0.00,VWS V14.01,2013-08-20 13:35:00,
2013-08-20 08:40:00,74.1,60.6,29.51,SSE,157,6.0,10.0,63,0.00,,,0.00,VWS V14.01,2013-08-20 13:40:00,
2013-08-20 08:45:00,74.9,61.3,29.51,ESE,123,6.0,7.0,63,0.00,,,0.00,VWS V14.01,2013-08-20 13:45:00,
2013-08-20 08:50:00,75.7,61.2,29.51,SSE,147,5.0,9.0,61,0.00,,,0.00,VWS V14.01,2013-08-20 13:50:00,
2013-08-20 08:55:00,76.3,61.3,29.51,SE,129,7.0,11.0,60,0.00,,,0.00,VWS V14.01,2013-08-20 13:55:00,
2013-08-20 09:00:00,76.9,61.3,29.51,SE,135,8.0,8.0,59,0.00,,,0.00,VWS V14.01,2013-08-20 14:00:00,
2013-08-20 09:05:00,77.5,60.9,29.51,SSE,153,7.0,9.0,57,0.00,,,0.00,VWS V14.01,2013-08-20 14:05:00,
2013-08-20 09:10:00,77.9,61.3,29.51,SE,136,7.0,9.0,57,0.00,,,0.00,VWS V14.01,2013-08-20 14:10:00,
2013-08-20 09:15:00,78.3,61.7,29.50,SSE,151,5.0,5.0,57,0.00,,,0.00,VWS V14.01,2013-08-20 14:15:00,
2013-08-20 09:20:00,78.8,62.6,29.50,SE,132,7.0,10.0,58,0.00,,,0.00,VWS V14.01,2013-08-20 14:20:00,
2013-08-20 09:25:00,79.2,62.0,29.50,SSE,149,7.0,10.0,56,0.00,,,0.00,VWS V14.01,2013-08-20 14:25:00,
2013-08-20 09:30:00,79.6,62.4,29.50,SE,145,3.0,10.0,56,0.00,,,0.00,VWS V14.01,2013-08-20 14:30:00,
2013-08-20 09:35:00,79.9,63.2,29.50,SE,141,4.0,8.0,57,0.00,,,0.00,VWS V14.01,2013-08-20 14:35:00,
2013-08-20 09:40:00,80.4,63.1,29.49,SSE,147,3.0,8.0,56,0.00,,,0.00,VWS V14.01,2013-08-20 14:40:00,
2013-08-20 09:45:00,80.9,63.1,29.49,SE,143,4.0,8.0,55,0.00,,,0.00,VWS V14.01,2013-08-20 14:45:00,
2013-08-20 09:50:00,81.3,63.5,29.49,SSE,153,6.0,8.0,55,0.00,,,0.00,VWS V14.01,2013-08-20 14:50:00,
2013-08-20 09:55:00,81.8,64.9,29.49,SE,129,3.0,8.0,57,0.00,,,0.00,VWS V14.01,2013-08-20 14:55:00,
2013-08-20 10:00:00,82.5,64.6,29.49,ESE,118,5.0,8.0,55,0.00,,,0.00,VWS V14.01,2013-08-20 15:00:00,
2013-08-20 10:05:00,83.1,63.5,29.49,East,94,4.0,7.0,52,0.00,,,0.00,VWS V14.01,2013-08-20 15:05:00,
2013-08-20 10:10:00,83.6,63.4,29.49,East,101,5.0,7.0,51,0.00,,,0.00,VWS V14.01,2013-08-20 15:10:00,
2013-08-20 10:15:00,83.9,62.5,29.49,SSE,159,7.0,10.0,49,0.00,,,0.00,VWS V14.01,2013-08-20 15:15:00,
2013-08-20 10:20:00,84.1,62.7,29.49,SE,134,9.0,10.0,49,0.00,,,0.00,VWS V14.01,2013-08-20 15:20:00,
2013-08-20 10:25:00,84.5,62.5,29.49,ESE,115,5.0,10.0,48,0.00,,,0.00,VWS V14.01,2013-08-20 15:25:00,
2013-08-20 10:30:00,85.0,63.0,29.49,SE,139,7.0,10.0,48,0.00,,,0.00,VWS V14.01,2013-08-20 15:30:00,
2013-08-20 10:35:00,85.3,62.6,29.49,SE,127,5.0,8.0,47,0.00,,,0.00,VWS V14.01,2013-08-20 15:35:00,
2013-08-20 10:40:00,85.6,62.3,29.49,SSE,149,10.0,12.0,46,0.00,,,0.00,VWS V14.01,2013-08-20 15:40:00,
2013-08-20 10:45:00,85.8,61.8,29.49,SE,144,7.0,12.0,45,0.00,,,0.00,VWS V14.01,2013-08-20 15:45:00,
2013-08-20 10:50:00,85.8,62.5,29.49,SSE,158,7.0,15.0,46,0.00,,,0.00,VWS V14.01,2013-08-20 15:50:00,
2013-08-20 10:55:00,85.9,61.9,29.49,SE,126,5.0,15.0,45,0.00,,,0.00,VWS V14.01,2013-08-20 15:55:00,
2013-08-20 11:00:00,86.1,62.7,29.49,SSE,158,14.0,15.0,46,0.00,,,0.00,VWS V14.01,2013-08-20 16:00:00,
2013-08-20 11:05:00,85.9,62.5,29.49,SE,144,3.0,14.0,46,0.00,,,0.00,VWS V14.01,2013-08-20 16:05:00,
2013-08-20 11:10:00,85.8,62.5,29.48,South,182,12.0,15.0,46,0.00,,,0.00,VWS V14.01,2013-08-20 16:10:00,
2013-08-20 11:15:00,85.7,63.0,29.48,SE,145,7.0,15.0,47,0.00,,,0.00,VWS V14.01,2013-08-20 16:15:00,
2013-08-20 11:20:00,85.4,63.9,29.48,SSE,157,9.0,17.0,49,0.00,,,0.00,VWS V14.01,2013-08-20 16:20:00,
2013-08-20 11:25:00,85.6,64.1,29.48,SSE,163,17.0,17.0,49,0.00,,,0.00,VWS V14.01,2013-08-20 16:25:00,
2013-08-20 11:30:00,85.8,64.3,29.48,SSE,149,8.0,17.0,49,0.00,,,0.00,VWS V14.01,2013-08-20 16:30:00,
2013-08-20 11:35:00,86.0,63.9,29.48,SSE,163,9.0,15.0,48,0.00,,,0.00,VWS V14.01,2013-08-20 16:35:00,
2013-08-20 11:40:00,86.4,63.6,29.48,South,171,5.0,15.0,47,0.00,,,0.00,VWS V14.01,2013-08-20 16:40:00,
2013-08-20 11:45:00,87.0,65.4,29.48,SSE,148,5.0,15.0,49,0.00,,,0.00,VWS V14.01,2013-08-20 16:45:00,
2013-08-20 11:50:00,87.6,64.7,29.48,SE,132,10.0,13.0,47,0.00,,,0.00,VWS V14.01,2013-08-20 16:50:00,
2013-08-20 11:55:00,88.1,64.6,29.48,SE,132,12.0,15.0,46,0.00,,,0.00,VWS V14.01,2013-08-20 16:55:00,
2013-08-20 12:00:00,87.9,64.4,29.48,SSE,159,7.0,15.0,46,0.00,,,0.00,VWS V14.01,2013-08-20 17:00:00,
2013-08-20 12:05:00,88.3,66.0,29.47,SSE,154,15.0,15.0,48,0.00,,,0.00,VWS V14.01,2013-08-20 17:05:00,
2013-08-20 12:10:00,88.6,65.0,29.47,South,171,15.0,17.0,46,0.00,,,0.00,VWS V14.01,2013-08-20 17:10:00,
2013-08-20 12:15:00,88.8,65.2,29.47,SSW,207,7.0,17.0,46,0.00,,,0.00,VWS V14.01,2013-08-20 17:15:00,
2013-08-20 12:20:00,89.2,65.6,29.46,SSE,147,7.0,16.0,46,0.00,,,0.00,VWS V14.01,2013-08-20 17:20:00,
2013-08-20 12:25:00,89.9,66.2,29.46,SSE,165,7.0,16.0,46,0.00,,,0.00,VWS V14.01,2013-08-20 17:25:00,
2013-08-20 12:30:00,89.9,66.2,29.47,SSE,165,9.0,16.0,46,0.00,,,0.00,VWS V14.01,2013-08-20 17:30:00,
2013-08-20 12:35:00,90.0,66.3,29.47,SSW,193,17.0,17.0,46,0.00,,,0.00,VWS V14.01,2013-08-20 17:35:00,
2013-08-20 12:40:00,89.9,65.5,29.47,South,173,8.0,17.0,45,0.00,,,0.00,VWS V14.01,2013-08-20 17:40:00,
2013-08-20 12:45:00,89.8,66.1,29.47,South,183,10.0,19.0,46,0.00,,,0.00,VWS V14.01,2013-08-20 17:45:00,
2013-08-20 12:50:00,90.0,67.5,29.47,South,177,13.0,20.0,48,0.00,,,0.00,VWS V14.01,2013-08-20 17:50:00,
2013-08-20 12:55:00,89.8,66.1,29.47,SW,233,4.0,20.0,46,0.00,,,0.00,VWS V14.01,2013-08-20 17:55:00,
2013-08-20 13:00:00,89.8,67.3,29.47,South,183,8.0,20.0,48,0.00,,,0.00,VWS V14.01,2013-08-20 18:00:00,
2013-08-20 13:05:00,89.7,67.2,29.47,SW,225,7.0,11.0,48,0.00,,,0.00,VWS V14.01,2013-08-20 18:05:00,
2013-08-20 13:10:00,89.5,67.1,29.47,South,183,8.0,12.0,48,0.00,,,0.00,VWS V14.01,2013-08-20 18:10:00,
2013-08-20 13:15:00,89.5,66.4,29.47,WSW,242,4.0,12.0,47,0.00,,,0.00,VWS V14.01,2013-08-20 18:15:00,
2013-08-20 13:20:00,89.4,65.1,29.47,WSW,244,6.0,14.0,45,0.00,,,0.00,VWS V14.01,2013-08-20 18:20:00,
2013-08-20 13:25:00,89.4,64.4,29.47,South,169,10.0,15.0,44,0.00,,,0.00,VWS V14.01,2013-08-20 18:25:00,
2013-08-20 13:30:00,89.3,61.6,29.47,SW,236,4.0,17.0,40,0.00,,,0.00,VWS V14.01,2013-08-20 18:30:00,
2013-08-20 13:35:00,89.5,62.5,29.47,SSW,211,8.0,10.0,41,0.00,,,0.00,VWS V14.01,2013-08-20 18:35:00,
2013-08-20 13:40:00,89.6,63.3,29.48,SW,222,5.0,14.0,42,0.00,,,0.00,VWS V14.01,2013-08-20 18:40:00,
2013-08-20 13:45:00,90.0,64.3,29.48,SW,226,2.0,14.0,43,0.00,,,0.00,VWS V14.01,2013-08-20 18:45:00,
2013-08-20 13:50:00,90.1,63.7,29.48,West,264,10.0,12.0,42,0.00,,,0.00,VWS V14.01,2013-08-20 18:50:00,
2013-08-20 13:55:00,89.8,63.5,29.48,West,263,8.0,15.0,42,0.00,,,0.00,VWS V14.01,2013-08-20 18:55:00,
2013-08-20 14:00:00,89.9,66.2,29.48,West,267,4.0,15.0,46,0.00,,,0.00,VWS V14.01,2013-08-20 19:00:00,
2013-08-20 14:05:00,89.8,62.8,29.48,SSW,205,5.0,14.0,41,0.00,,,0.00,VWS V14.01,2013-08-20 19:05:00,
2013-08-20 14:10:00,89.9,64.2,29.48,WNW,290,13.0,14.0,43,0.00,,,0.00,VWS V14.01,2013-08-20 19:10:00,
2013-08-20 14:15:00,89.7,60.5,29.48,SW,235,8.0,18.0,38,0.00,,,0.00,VWS V14.01,2013-08-20 19:15:00,
2013-08-20 14:20:00,89.5,60.3,29.49,West,270,13.0,18.0,38,0.00,,,0.00,VWS V14.01,2013-08-20 19:20:00,
2013-08-20 14:25:00,89.2,60.8,29.49,WSW,240,8.0,18.0,39,0.00,,,0.00,VWS V14.01,2013-08-20 19:25:00,
2013-08-20 14:30:00,88.9,61.3,29.49,WSW,241,7.0,18.0,40,0.00,,,0.00,VWS V14.01,2013-08-20 19:30:00,
2013-08-20 14:35:00,88.8,63.2,29.49,West,261,13.0,16.0,43,0.00,,,0.00,VWS V14.01,2013-08-20 19:35:00,
2013-08-20 14:40:00,88.7,60.4,29.49,WNW,300,9.0,17.0,39,0.00,,,0.00,VWS V14.01,2013-08-20 19:40:00,
2013-08-20 14:44:00,88.4,60.8,29.49,WNW,282,10.0,17.0,40,0.00,,,0.00,VWS V14.01,2013-08-20 19:44:00,
2013-08-20 14:45:00,90.0,65.6,29.48,WSW,255,3.0,14.0,45,0.00,,,0.00,VWS V14.01,2013-08-20 19:45:00,
2013-08-20 14:49:00,88.2,61.3,29.49,West,275,8.0,14.0,41,0.00,,,0.00,VWS V14.01,2013-08-20 19:49:00,
2013-08-20 14:54:00,88.2,60.6,29.49,West,266,10.0,15.0,40,0.00,,,0.00,VWS V14.01,2013-08-20 19:54:00,
2013-08-20 14:59:00,88.2,62.7,29.49,West,269,4.0,15.0,43,0.00,,,0.00,VWS V14.01,2013-08-20 19:59:00,
2013-08-20 15:00:00,89.9,66.2,29.48,SW,223,4.0,15.0,46,0.00,,,0.00,VWS V14.01,2013-08-20 20:00:00,
2013-08-20 15:04:00,88.2,60.6,29.49,WNW,282,9.0,12.0,40,0.00,,,0.00,VWS V14.01,2013-08-20 20:04:00,
2013-08-20 15:09:00,88.3,61.4,29.49,WSW,256,5.0,14.0,41,0.00,,,0.00,VWS V14.01,2013-08-20 20:09:00,
2013-08-20 15:14:00,88.4,60.8,29.49,West,267,7.0,15.0,40,0.00,,,0.00,VWS V14.01,2013-08-20 20:14:00,
2013-08-20 15:15:00,89.7,61.3,29.48,WNW,286,7.0,18.0,39,0.00,,,0.00,VWS V14.01,2013-08-20 20:15:00,
2013-08-20 15:19:00,88.4,60.8,29.49,West,260,9.0,13.0,40,0.00,,,0.00,VWS V14.01,2013-08-20 20:19:00,
2013-08-20 15:24:00,88.6,61.7,29.49,WNW,299,5.0,13.0,41,0.00,,,0.00,VWS V14.01,2013-08-20 20:24:00,
2013-08-20 15:29:00,88.8,59.7,29.49,WNW,282,10.0,19.0,38,0.00,,,0.00,VWS V14.01,2013-08-20 20:29:00,
2013-08-20 15:30:00,88.8,61.2,29.49,NW,305,7.0,18.0,40,0.00,,,0.00,VWS V14.01,2013-08-20 20:30:00,
2013-08-20 15:34:00,88.8,59.0,29.49,West,273,12.0,16.0,37,0.00,,,0.00,VWS V14.01,2013-08-20 20:34:00,
2013-08-20 15:39:00,88.8,59.7,29.50,West,269,11.0,16.0,38,0.00,,,0.00,VWS V14.01,2013-08-20 20:39:00,
2013-08-20 15:44:00,88.8,61.9,29.50,WNW,299,12.0,16.0,41,0.00,,,0.00,VWS V14.01,2013-08-20 20:44:00,
2013-08-20 15:45:00,88.4,60.1,29.49,West,273,13.0,17.0,39,0.00,,,0.00,VWS V14.01,2013-08-20 20:45:00,
2013-08-20 15:49:00,88.6,60.3,29.49,West,275,7.0,17.0,39,0.00,,,0.00,VWS V14.01,2013-08-20 20:49:00,
2013-08-20 15:54:00,88.6,59.5,29.49,West,273,6.0,17.0,38,0.00,,,0.00,VWS V14.01,2013-08-20 20:54:00,
2013-08-20 15:59:00,88.9,58.3,29.49,WNW,290,7.0,19.0,36,0.00,,,0.00,VWS V14.01,2013-08-20 20:59:00,
2013-08-20 16:00:00,88.2,62.7,29.49,WSW,248,5.0,15.0,43,0.00,,,0.00,VWS V14.01,2013-08-20 21:00:00,
2013-08-20 16:04:00,89.0,59.9,29.49,West,265,6.0,11.0,38,0.00,,,0.00,VWS V14.01,2013-08-20 21:04:00,
2013-08-20 16:09:00,89.1,58.5,29.49,West,280,14.0,14.0,36,0.00,,,0.00,VWS V14.01,2013-08-20 21:09:00,
2013-08-20 16:14:00,88.9,59.8,29.49,WNW,300,15.0,16.0,38,0.00,,,0.00,VWS V14.01,2013-08-20 21:14:00,
2013-08-20 16:15:00,88.4,61.5,29.49,WNW,295,5.0,15.0,41,0.00,,,0.00,VWS V14.01,2013-08-20 21:15:00,
2013-08-20 16:19:00,88.6,58.8,29.49,West,263,7.0,15.0,37,0.00,,,0.00,VWS V14.01,2013-08-20 21:19:00,
2013-08-20 16:24:00,88.6,58.8,29.49,WSW,251,9.0,16.0,37,0.00,,,0.00,VWS V14.01,2013-08-20 21:24:00,
2013-08-20 16:29:00,88.7,59.6,29.49,WNW,290,5.0,16.0,38,0.00,,,0.00,VWS V14.01,2013-08-20 21:29:00,
2013-08-20 16:30:00,88.8,60.5,29.49,West,265,7.0,19.0,39,0.00,,,0.00,VWS V14.01,2013-08-20 21:30:00,
2013-08-20 16:34:00,88.7,58.9,29.49,West,280,7.0,16.0,37,0.00,,,0.00,VWS V14.01,2013-08-20 21:34:00,
2013-08-20 16:39:00,88.6,58.8,29.49,WSW,238,11.0,16.0,37,0.00,,,0.00,VWS V14.01,2013-08-20 21:39:00,
2013-08-20 16:44:00,88.7,58.9,29.49,West,279,10.0,16.0,37,0.00,,,0.00,VWS V14.01,2013-08-20 21:44:00,
2013-08-20 16:45:00,88.8,60.5,29.50,West,264,6.0,16.0,39,0.00,,,0.00,VWS V14.01,2013-08-20 21:45:00,
2013-08-20 16:49:00,88.9,59.1,29.49,West,263,8.0,16.0,37,0.00,,,0.00,VWS V14.01,2013-08-20 21:49:00,
2013-08-20 16:54:00,88.6,57.2,29.49,WNW,292,8.0,20.0,35,0.00,,,0.00,VWS V14.01,2013-08-20 21:54:00,
2013-08-20 16:59:00,88.7,58.1,29.49,WNW,295,7.0,20.0,36,0.00,,,0.00,VWS V14.01,2013-08-20 21:59:00,
2013-08-20 17:00:00,88.9,59.8,29.49,West,265,7.0,19.0,38,0.00,,,0.00,VWS V14.01,2013-08-20 22:00:00,
2013-08-20 17:04:00,88.6,58.0,29.49,WSW,249,8.0,12.0,36,0.00,,,0.00,VWS V14.01,2013-08-20 22:04:00,
2013-08-20 17:09:00,88.5,57.9,29.49,WNW,300,9.0,13.0,36,0.00,,,0.00,VWS V14.01,2013-08-20 22:09:00,
2013-08-20 17:14:00,88.7,58.9,29.49,WNW,283,6.0,16.0,37,0.00,,,0.00,VWS V14.01,2013-08-20 22:14:00,
2013-08-20 17:15:00,88.9,59.8,29.49,WNW,286,15.0,18.0,38,0.00,,,0.00,VWS V14.01,2013-08-20 22:15:00,
2013-08-20 17:19:00,88.6,58.0,29.49,WNW,291,10.0,15.0,36,0.00,,,0.00,VWS V14.01,2013-08-20 22:19:00,
2013-08-20 17:24:00,88.5,57.9,29.49,West,268,9.0,17.0,36,0.00,,,0.00,VWS V14.01,2013-08-20 22:24:00,
2013-08-20 17:29:00,88.5,59.5,29.50,West,267,9.0,17.0,38,0.00,,,0.00,VWS V14.01,2013-08-20 22:29:00,
2013-08-20 17:30:00,88.7,59.6,29.49,West,271,8.0,16.0,38,0.00,,,0.00,VWS V14.01,2013-08-20 22:30:00,
2013-08-20 17:34:00,88.5,57.9,29.50,WNW,294,11.0,15.0,36,0.00,,,0.00,VWS V14.01,2013-08-20 22:34:00,
2013-08-20 17:39:00,88.5,57.9,29.50,WNW,298,12.0,16.0,36,0.00,,,0.00,VWS V14.01,2013-08-20 22:39:00,
2013-08-20 17:44:00,88.5,60.2,29.50,WNW,284,10.0,16.0,39,0.00,,,0.00,VWS V14.01,2013-08-20 22:44:00,
2013-08-20 17:45:00,88.7,58.9,29.49,WNW,285,8.0,16.0,37,0.00,,,0.00,VWS V14.01,2013-08-20 22:45:00,
2013-08-20 17:49:00,88.4,58.6,29.50,WNW,297,11.0,15.0,37,0.00,,,0.00,VWS V14.01,2013-08-20 22:49:00,
2013-08-20 17:54:00,88.2,58.4,29.50,NW,306,13.0,17.0,37,0.00,,,0.00,VWS V14.01,2013-08-20 22:54:00,
2013-08-20 17:59:00,88.1,58.3,29.50,WNW,286,6.0,17.0,37,0.00,,,0.00,VWS V14.01,2013-08-20 22:59:00,
2013-08-20 18:00:00,88.7,58.9,29.49,WSW,245,7.0,20.0,37,0.00,,,0.00,VWS V14.01,2013-08-20 23:00:00,
2013-08-20 18:04:00,88.1,59.1,29.50,WNW,294,7.0,13.0,38,0.00,,,0.00,VWS V14.01,2013-08-20 23:04:00,
2013-08-20 18:09:00,88.0,59.0,29.50,West,272,5.0,13.0,38,0.00,,,0.00,VWS V14.01,2013-08-20 23:09:00,
2013-08-20 18:14:00,87.8,59.6,29.50,West,280,8.0,13.0,39,0.00,,,0.00,VWS V14.01,2013-08-20 23:14:00,
2013-08-20 18:15:00,88.7,58.9,29.49,WSW,255,9.0,16.0,37,0.00,,,0.00,VWS V14.01,2013-08-20 23:15:00,
2013-08-20 18:19:00,87.8,59.6,29.50,WNW,286,5.0,14.0,39,0.00,,,0.00,VWS V14.01,2013-08-20 23:19:00,
2013-08-20 18:24:00,87.5,60.0,29.50,West,280,11.0,18.0,40,0.00,,,0.00,VWS V14.01,2013-08-20 23:24:00,
2013-08-20 18:29:00,87.1,59.7,29.50,WNW,292,13.0,18.0,40,0.00,,,0.00,VWS V14.01,2013-08-20 23:29:00,
2013-08-20 18:30:00,88.4,58.6,29.49,WNW,296,11.0,17.0,37,0.00,,,0.00,VWS V14.01,2013-08-20 23:30:00,
2013-08-20 18:34:00,86.8,60.1,29.50,WNW,297,10.0,16.0,41,0.00,,,0.00,VWS V14.01,2013-08-20 23:34:00,
2013-08-20 18:39:00,86.6,59.9,29.50,WNW,293,11.0,16.0,41,0.00,,,0.00,VWS V14.01,2013-08-20 23:39:00,
2013-08-20 18:44:00,86.4,59.7,29.50,NW,306,8.0,18.0,41,0.00,,,0.00,VWS V14.01,2013-08-20 23:44:00,
2013-08-20 18:45:00,88.5,58.7,29.50,WNW,295,5.0,16.0,37,0.00,,,0.00,VWS V14.01,2013-08-20 23:45:00,
2013-08-20 18:49:00,86.0,59.4,29.51,West,261,6.0,14.0,41,0.00,,,0.00,VWS V14.01,2013-08-20 23:49:00,
2013-08-20 18:54:00,85.8,59.2,29.51,WNW,289,11.0,15.0,41,0.00,,,0.00,VWS V14.01,2013-08-20 23:54:00,
2013-08-20 18:59:00,85.6,59.0,29.51,WNW,289,10.0,15.0,41,0.00,,,0.00,VWS V14.01,2013-08-20 23:59:00,
2013-08-20 19:00:00,88.1,58.3,29.50,WNW,295,5.0,17.0,37,0.00,,,0.00,VWS V14.01,2013-08-21 00:00:00,
2013-08-20 19:04:00,85.4,59.5,29.51,NW,306,9.0,16.0,42,0.00,,,0.00,VWS V14.01,2013-08-21 00:04:00,
2013-08-20 19:09:00,85.1,59.2,29.51,WNW,290,7.0,16.0,42,0.00,,,0.00,VWS V14.01,2013-08-21 00:09:00,
2013-08-20 19:14:00,84.9,59.7,29.51,WNW,283,6.0,16.0,43,0.00,,,0.00,VWS V14.01,2013-08-21 00:14:00,
2013-08-20 19:15:00,87.8,60.3,29.50,West,276,7.0,13.0,40,0.00,,,0.00,VWS V14.01,2013-08-21 00:15:00,
2013-08-20 19:19:00,84.8,59.0,29.51,WNW,298,7.0,13.0,42,0.00,,,0.00,VWS V14.01,2013-08-21 00:19:00,
2013-08-20 19:25:00,84.6,59.5,29.51,West,259,7.0,15.0,43,0.00,,,0.00,VWS V14.01,2013-08-21 00:25:00,
2013-08-20 19:30:00,84.3,59.8,29.51,WNW,301,12.0,15.0,44,0.00,,,0.00,VWS V14.01,2013-08-21 00:30:00,
2013-08-20 19:35:00,83.9,60.1,29.52,WNW,295,7.0,11.0,45,0.00,,,0.00,VWS V14.01,2013-08-21 00:35:00,
2013-08-20 19:40:00,83.5,59.8,29.52,West,268,5.0,11.0,45,0.00,,,0.00,VWS V14.01,2013-08-21 00:40:00,
2013-08-20 19:45:00,83.2,59.5,29.52,WNW,291,6.0,11.0,45,0.00,,,0.00,VWS V14.01,2013-08-21 00:45:00,
2013-08-20 19:50:00,82.9,59.2,29.52,West,259,6.0,9.0,45,0.00,,,0.00,VWS V14.01,2013-08-21 00:50:00,
2013-08-20 19:55:00,82.5,59.5,29.52,WNW,298,5.0,9.0,46,0.00,,,0.00,VWS V14.01,2013-08-21 00:55:00,
2013-08-20 20:00:00,82.2,59.8,29.52,West,278,5.0,9.0,47,0.00,,,0.00,VWS V14.01,2013-08-21 01:00:00,
2013-08-20 20:05:00,81.7,59.9,29.52,West,263,4.0,9.0,48,0.00,,,0.00,VWS V14.01,2013-08-21 01:05:00,
2013-08-20 20:10:00,81.3,60.2,29.52,WNW,284,5.0,9.0,49,0.00,,,0.00,VWS V14.01,2013-08-21 01:10:00,
2013-08-20 20:15:00,80.9,60.4,29.53,West,265,4.0,9.0,50,0.00,,,0.00,VWS V14.01,2013-08-21 01:15:00,
2013-08-20 20:19:00,80.4,60.5,29.53,West,261,3.0,5.0,51,0.00,,,0.00,VWS V14.01,2013-08-21 01:19:00,
2013-08-20 20:24:00,79.9,61.1,29.54,WNW,285,4.0,5.0,53,0.00,,,0.00,VWS V14.01,2013-08-21 01:24:00,
2013-08-20 20:29:00,79.3,61.1,29.54,WSW,248,4.0,6.0,54,0.00,,,0.00,VWS V14.01,2013-08-21 01:29:00,
2013-08-20 20:30:00,84.3,59.2,29.51,WNW,289,11.0,15.0,43,0.00,,,0.00,VWS V14.01,2013-08-21 01:30:00,
2013-08-20 20:34:00,78.8,61.1,29.54,West,278,2.0,7.0,55,0.00,,,0.00,VWS V14.01,2013-08-21 01:34:00,
2013-08-20 20:39:00,78.5,60.8,29.54,West,263,3.0,7.0,55,0.00,,,0.00,VWS V14.01,2013-08-21 01:39:00,
2013-08-20 20:44:00,78.1,61.0,29.54,WNW,284,3.0,7.0,56,0.00,,,0.00,VWS V14.01,2013-08-21 01:44:00,
2013-08-20 20:45:00,83.1,59.4,29.52,WNW,285,7.0,11.0,45,0.00,,,0.00,VWS V14.01,2013-08-21 01:45:00,
2013-08-20 20:49:00,77.6,61.0,29.55,West,261,6.0,6.0,57,0.00,,,0.00,VWS V14.01,2013-08-21 01:49:00,
2013-08-20 20:54:00,77.1,61.0,29.55,WNW,290,5.0,6.0,58,0.00,,,0.00,VWS V14.01,2013-08-21 01:54:00,
2013-08-20 20:59:00,76.6,61.5,29.56,West,260,5.0,7.0,60,0.00,,,0.00,VWS V14.01,2013-08-21 01:59:00,
2013-08-20 21:00:00,82.1,60.3,29.52,WNW,296,4.0,9.0,48,0.00,,,0.00,VWS V14.01,2013-08-21 02:00:00,
2013-08-20 21:04:00,76.0,61.9,29.56,WNW,286,6.0,9.0,62,0.00,,,0.00,VWS V14.01,2013-08-21 02:04:00,
2013-08-20 21:09:00,75.8,62.2,29.56,West,279,13.0,13.0,63,0.00,,,0.00,VWS V14.01,2013-08-21 02:09:00,
2013-08-20 21:14:00,75.7,63.4,29.57,WNW,302,6.0,14.0,66,0.00,,,0.00,VWS V14.01,2013-08-21 02:14:00,
2013-08-20 21:15:00,80.8,60.3,29.53,WNW,284,5.0,9.0,50,0.00,,,0.00,VWS V14.01,2013-08-21 02:15:00,
2013-08-20 21:19:00,75.3,63.9,29.57,West,280,9.0,15.0,68,0.00,,,0.00,VWS V14.01,2013-08-21 02:19:00,
2013-08-20 21:24:00,75.1,64.1,29.58,NW,319,6.0,15.0,69,0.00,,,0.00,VWS V14.01,2013-08-21 02:24:00,
2013-08-20 21:29:00,74.9,64.3,29.58,WNW,284,7.0,15.0,70,0.00,,,0.00,VWS V14.01,2013-08-21 02:29:00,
2013-08-20 21:30:00,79.2,61.0,29.54,WNW,288,4.0,6.0,54,0.00,,,0.00,VWS V14.01,2013-08-21 02:30:00,
2013-08-20 21:34:00,74.5,64.4,29.58,West,280,7.0,11.0,71,0.00,,,0.00,VWS V14.01,2013-08-21 02:34:00,
2013-08-20 21:39:00,74.1,64.4,29.59,NW,321,6.0,12.0,72,0.00,,,0.00,VWS V14.01,2013-08-21 02:39:00,
2013-08-20 21:44:00,73.7,64.4,29.59,NW,304,1.0,12.0,73,0.00,,,0.00,VWS V14.01,2013-08-21 02:44:00,
2013-08-20 21:45:00,78.1,61.0,29.54,West,269,3.0,7.0,56,0.00,,,0.00,VWS V14.01,2013-08-21 02:45:00,
2013-08-20 21:49:00,73.2,63.9,29.59,NNW,338,4.0,8.0,73,0.00,,,0.00,VWS V14.01,2013-08-21 02:49:00,
2013-08-20 21:54:00,72.8,62.3,29.60,NNW,331,6.0,10.0,70,0.00,,,0.00,VWS V14.01,2013-08-21 02:54:00,
2013-08-20 21:59:00,72.7,61.4,29.60,NNE,17,7.0,10.0,68,0.00,,,0.00,VWS V14.01,2013-08-21 02:59:00,
2013-08-20 22:00:00,76.5,61.5,29.55,WNW,286,5.0,8.0,60,0.00,,,0.00,VWS V14.01,2013-08-21 03:00:00,
2013-08-20 22:04:00,72.8,61.1,29.60,SE,124,3.0,10.0,67,0.00,,,0.00,VWS V14.01,2013-08-21 03:04:00,
2013-08-20 22:09:00,72.6,61.3,29.61,NW,313,3.0,10.0,68,0.00,,,0.00,VWS V14.01,2013-08-21 03:09:00,
2013-08-20 22:14:00,72.3,61.5,29.61,WNW,286,5.0,10.0,69,0.00,,,0.00,VWS V14.01,2013-08-21 03:14:00,
2013-08-20 22:15:00,75.6,63.3,29.57,West,281,7.0,14.0,66,0.00,,,0.00,VWS V14.01,2013-08-21 03:15:00,
2013-08-20 22:19:00,72.0,61.2,29.61,North,9,1.0,7.0,69,0.00,,,0.00,VWS V14.01,2013-08-21 03:19:00,
2013-08-20 22:24:00,71.7,60.9,29.62,WNW,290,4.0,7.0,69,0.00,,,0.00,VWS V14.01,2013-08-21 03:24:00,
2013-08-20 22:29:00,71.3,60.5,29.62,West,279,4.0,8.0,69,0.00,,,0.00,VWS V14.01,2013-08-21 03:29:00,
2013-08-20 22:30:00,74.8,64.2,29.58,WNW,288,11.0,15.0,70,0.00,,,0.00,VWS V14.01,2013-08-21 03:30:00,
2013-08-20 22:34:00,70.9,60.1,29.63,NW,314,6.0,7.0,69,0.00,,,0.00,VWS V14.01,2013-08-21 03:34:00,
2013-08-20 22:39:00,70.6,59.8,29.63,NW,309,2.0,9.0,69,0.00,,,0.00,VWS V14.01,2013-08-21 03:39:00,
2013-08-20 22:44:00,70.3,59.9,29.63,WSW,257,7.0,9.0,70,0.00,,,0.00,VWS V14.01,2013-08-21 03:44:00,
2013-08-20 22:45:00,73.6,64.3,29.59,NW,305,2.0,12.0,73,0.00,,,0.00,VWS V14.01,2013-08-21 03:45:00,
2013-08-20 22:49:00,70.4,59.2,29.63,NW,305,4.0,11.0,68,0.00,,,0.00,VWS V14.01,2013-08-21 03:49:00,
2013-08-20 22:54:00,70.2,59.4,29.64,NW,314,2.0,11.0,69,0.00,,,0.00,VWS V14.01,2013-08-21 03:54:00,
2013-08-20 22:59:00,69.8,59.5,29.63,WNW,303,3.0,11.0,70,0.00,,,0.00,VWS V14.01,2013-08-21 03:59:00,
2013-08-20 23:00:00,72.7,61.4,29.60,NE,45,7.0,10.0,68,0.00,,,0.00,VWS V14.01,2013-08-21 04:00:00,
2013-08-20 23:01:00,69.7,59.4,29.64,NW,317,4.0,4.0,70,0.00,,,0.00,VWS V14.01,2013-08-21 04:01:00,
2013-08-20 23:06:00,69.3,59.4,29.64,WNW,290,3.0,6.0,71,0.00,,,0.00,VWS V14.01,2013-08-21 04:06:00,
2013-08-20 23:11:00,68.8,59.7,29.64,WNW,287,4.0,6.0,73,0.00,,,0.00,VWS V14.01,2013-08-21 04:11:00,
2013-08-20 23:15:00,72.3,61.5,29.61,NW,319,4.0,10.0,69,0.00,,,0.00,VWS V14.01,2013-08-21 04:15:00,
2013-08-20 23:16:00,68.5,59.8,29.64,WNW,283,3.0,5.0,74,0.00,,,0.00,VWS V14.01,2013-08-21 04:16:00,
2013-08-20 23:21:00,68.3,60.0,29.64,WNW,296,5.0,8.0,75,0.00,,,0.00,VWS V14.01,2013-08-21 04:21:00,
2013-08-20 23:26:00,68.1,60.2,29.64,NW,315,5.0,8.0,76,0.00,,,0.00,VWS V14.01,2013-08-21 04:26:00,
2013-08-20 23:30:00,71.2,60.4,29.62,NW,312,3.0,8.0,69,0.00,,,0.00,VWS V14.01,2013-08-21 04:30:00,
2013-08-20 23:31:00,67.8,60.2,29.65,WNW,296,4.0,5.0,77,0.00,,,0.00,VWS V14.01,2013-08-21 04:31:00,
2013-08-20 23:36:00,67.6,60.4,29.65,West,275,4.0,7.0,78,0.00,,,0.00,VWS V14.01,2013-08-21 04:36:00,
2013-08-20 23:41:00,67.4,60.6,29.65,WNW,292,5.0,7.0,79,0.00,,,0.00,VWS V14.01,2013-08-21 04:41:00,
2013-08-20 23:45:00,70.3,59.9,29.63,NNW,336,6.0,10.0,70,0.00,,,0.00,VWS V14.01,2013-08-21 04:45:00,
2013-08-20 23:46:00,67.1,60.3,29.65,WNW,284,2.0,2.0,79,0.00,,,0.00,VWS V14.01,2013-08-21 04:46:00,
2013-08-20 23:51:00,66.8,60.0,29.65,WNW,297,3.0,7.0,79,0.00,,,0.00,VWS V14.01,2013-08-21 04:51:00,
2013-08-20 23:56:00,66.5,59.7,29.65,WNW,293,4.0,7.0,79,0.00,,,0.00,VWS V14.01,2013-08-21 04:56:00,